Time;durP1;ratioP1;P1;durP2;ratioP2;P2;SDS_P1;SDS_P2;PMS_P1;PMS_P2;Temp;Humidity;BMP_temperature;BMP_pressure;BME280_temperature;BME280_humidity;BME280_pressure;Samples;Min_cycle;Max_cycle;Signal;HPM_P1;HPM_P2
2022/01/22 00:00:00;;;;;;;9.60;6.17;;;;;;;4.67;100.00;100400.06;5101957;28;20199;-83
2022/01/22 00:02:28;;;;;;;6.97;6.17;;;;;;;4.65;100.00;100411.47;5108734;28;20199;-84
2022/01/22 00:04:57;;;;;;;10.47;6.90;;;;;;;4.62;100.00;100412.38;5105051;28;20227;-84
2022/01/22 00:07:25;;;;;;;11.20;6.43;;;;;;;4.67;100.00;100420.19;5100549;28;20218;-84
2022/01/22 00:10:00;;;;;;;7.70;5.37;;;;;;;4.65;100.00;100412.34;5112624;28;20252;-83
2022/01/22 00:12:43;;;;;;;9.60;5.87;;;;;;;4.70;100.00;100418.34;5118882;27;20196;-84
2022/01/22 00:15:14;;;;;;;9.20;5.50;;;;;;;4.69;100.00;100413.13;5173437;27;20203;-84
2022/01/22 00:17:42;;;;;;;6.87;5.13;;;;;;;4.64;100.00;100410.63;5156396;27;20206;-83
2022/01/22 00:20:12;;;;;;;6.40;5.10;;;;;;;4.66;100.00;100410.59;5172694;27;20386;-83
2022/01/22 00:22:42;;;;;;;6.87;5.63;;;;;;;4.64;100.00;100409.75;5174011;27;20215;-83
2022/01/22 00:25:16;;;;;;;7.37;5.60;;;;;;;4.63;100.00;100400.13;5173699;27;20185;-83
2022/01/22 00:27:46;;;;;;;6.70;5.70;;;;;;;4.59;100.00;100405.44;5175210;27;20212;-84
2022/01/22 00:30:18;;;;;;;8.33;4.97;;;;;;;4.64;100.00;100400.13;5171912;27;20192;-83
2022/01/22 00:32:47;;;;;;;7.57;4.97;;;;;;;4.59;100.00;100394.09;5174438;27;20220;-83
2022/01/22 00:35:15;;;;;;;10.13;5.30;;;;;;;4.59;100.00;100396.72;5175807;27;20192;-84
2022/01/22 00:37:48;;;;;;;6.30;4.77;;;;;;;4.59;100.00;100397.56;5181328;27;20349;-83
2022/01/22 00:40:20;;;;;;;7.00;4.93;;;;;;;4.57;100.00;100395.88;5175009;27;20197;-83
2022/01/22 00:42:50;;;;;;;6.07;4.73;;;;;;;4.57;100.00;100401.13;5173538;27;20229;-84
2022/01/22 00:45:21;;;;;;;6.23;5.17;;;;;;;4.57;100.00;100403.75;5173933;27;20260;-83
2022/01/22 00:47:50;;;;;;;6.00;4.40;;;;;;;4.55;100.00;100395.91;5174155;27;20242;-84
2022/01/22 00:50:22;;;;;;;6.50;5.00;;;;;;;4.54;100.00;100385.47;5172575;27;20268;-84
2022/01/22 00:52:51;;;;;;;5.13;4.50;;;;;;;4.52;100.00;100385.47;5172095;27;20197;-83
2022/01/22 00:55:21;;;;;;;6.30;4.57;;;;;;;4.53;100.00;100388.94;5172576;27;20201;-84
2022/01/22 00:57:49;;;;;;;6.03;4.27;;;;;;;4.50;100.00;100392.50;5176801;27;20204;-84
2022/01/22 01:00:19;;;;;;;5.20;4.50;;;;;;;4.44;100.00;100376.91;5166516;27;20234;-83
2022/01/22 01:02:47;;;;;;;5.10;4.20;;;;;;;4.51;100.00;100372.38;5170742;27;20253;-83
2022/01/22 01:05:17;;;;;;;5.07;4.10;;;;;;;4.48;100.00;100394.28;5173237;27;20245;-84
2022/01/22 01:07:46;;;;;;;4.97;4.30;;;;;;;4.49;100.00;100380.28;5176472;27;20205;-84
2022/01/22 01:10:17;;;;;;;5.97;4.70;;;;;;;4.51;100.00;100388.13;5175153;27;20193;-83
2022/01/22 01:12:48;;;;;;;5.10;4.47;;;;;;;4.50;100.00;100392.50;5173071;27;20347;-83
2022/01/22 01:15:36;;;;;;;6.93;4.83;;;;;;;4.48;100.00;100399.53;5173840;27;20234;-84
2022/01/22 01:32:10;;;;;;;5.03;3.97;;;;;;;4.52;100.00;100395.09;5176294;27;20197;-84
2022/01/22 01:32:20;;;;;;;4.63;4.07;;;;;;;4.43;100.00;100385.63;5177114;27;20196;-83
2022/01/22 01:34:50;;;;;;;5.37;3.47;;;;;;;4.43;100.00;100396.13;5182288;27;20242;-81
2022/01/22 01:37:20;;;;;;;3.73;3.20;;;;;;;4.44;100.00;100386.50;5197037;27;20185;-81
2022/01/22 01:39:53;;;;;;;3.70;3.30;;;;;;;4.41;100.00;100384.81;5197937;27;20248;-80
2022/01/22 01:42:32;;;;;;;3.40;3.10;;;;;;;4.39;100.00;100388.38;5176479;27;20217;-83
2022/01/22 01:45:06;;;;;;;3.97;3.30;;;;;;;4.43;100.00;100376.91;5171066;27;20212;-83
2022/01/22 01:47:38;;;;;;;3.43;2.80;;;;;;;4.36;100.00;100365.69;5188504;27;20222;-83
2022/01/22 01:50:07;;;;;;;3.30;3.00;;;;;;;4.34;100.00;100364.81;5095205;28;20188;-83
2022/01/22 01:52:42;;;;;;;3.83;3.50;;;;;;;4.35;100.00;100365.72;5088381;28;20196;-83
2022/01/22 01:55:15;;;;;;;3.07;2.77;;;;;;;4.32;100.00;100369.25;5087338;28;20199;-83
2022/01/22 01:57:43;;;;;;;3.10;2.80;;;;;;;4.31;100.00;100367.50;5090434;28;20191;-83
2022/01/22 02:00:18;;;;;;;4.03;3.00;;;;;;;4.33;100.00;100368.34;5090529;28;20651;-83
2022/01/22 02:02:48;;;;;;;3.80;3.03;;;;;;;4.31;100.00;100364.91;5087447;28;20207;-83
2022/01/22 02:05:21;;;;;;;3.47;3.10;;;;;;;4.32;100.00;100375.34;5090926;28;20236;-83
2022/01/22 02:07:49;;;;;;;3.10;2.80;;;;;;;4.31;100.00;100378.88;5119289;27;20209;-83
2022/01/22 02:10:22;;;;;;;2.60;2.40;;;;;;;4.29;100.00;100385.91;5126116;27;20256;-83
2022/01/22 02:23:59;;;;;;;2.43;2.10;;;;;;;4.25;100.00;100368.50;5178222;27;20213;-84
2022/01/22 02:26:29;;;;;;;1.97;1.80;;;;;;;4.20;100.00;100367.72;5165657;27;20197;-83
2022/01/22 02:28:57;;;;;;;2.13;1.93;;;;;;;4.20;100.00;100367.72;5147074;27;20229;-83
2022/01/22 02:31:34;;;;;;;2.20;2.00;;;;;;;4.20;100.00;100366.84;5151007;27;20208;-83
2022/01/22 02:34:12;;;;;;;2.13;2.03;;;;;;;4.18;100.00;100366.91;5116483;27;20207;-83
2022/01/22 02:36:55;;;;;;;2.20;2.00;;;;;;;4.20;100.00;100362.47;5153222;27;20189;-84
2022/01/22 02:39:36;;;;;;;2.10;1.90;;;;;;;4.18;100.00;100377.38;5150963;27;20329;-83
2022/01/22 02:42:07;;;;;;;2.07;1.87;;;;;;;4.14;100.00;100370.44;5149460;27;20258;-83
2022/01/22 02:44:44;;;;;;;1.90;1.80;;;;;;;4.18;100.00;100369.50;5142219;27;20196;-83
2022/01/22 02:47:14;;;;;;;2.57;2.37;;;;;;;4.17;100.00;100362.53;5162464;27;20220;-83
2022/01/22 02:49:43;;;;;;;2.20;1.80;;;;;;;4.15;100.00;100356.47;5175048;27;20189;-83
2022/01/22 02:52:17;;;;;;;2.07;1.90;;;;;;;4.17;100.00;100354.69;5168735;27;20197;-83
2022/01/22 02:54:46;;;;;;;2.50;2.30;;;;;;;4.17;100.00;100354.69;5172230;27;20195;-83
2022/01/22 02:57:15;;;;;;;2.30;2.10;;;;;;;4.16;100.00;100368.69;5173696;27;20189;-83
2022/01/22 02:59:43;;;;;;;1.80;1.70;;;;;;;4.14;100.00;100370.44;5168550;27;20193;-83
2022/01/22 03:02:13;;;;;;;2.30;2.10;;;;;;;4.18;100.00;100379.13;5087854;28;20183;-83
2022/01/22 03:04:42;;;;;;;2.37;2.17;;;;;;;4.19;100.00;100376.47;5087139;28;20200;-83
2022/01/22 03:07:11;;;;;;;2.83;2.20;;;;;;;4.19;100.00;100376.47;5088842;28;20210;-83
2022/01/22 03:09:43;;;;;;;2.27;2.10;;;;;;;4.18;100.00;100379.13;5091856;28;20198;-84
2022/01/22 03:17:56;;;;;;;1.77;1.67;;;;;;;4.19;100.00;100373.00;5092770;28;20192;-83
2022/01/22 03:28:58;;;;;;;2.37;2.00;;;;;;;4.20;100.00;100383.47;5123769;28;20218;-83
2022/01/22 03:31:29;;;;;;;1.87;1.77;;;;;;;4.21;100.00;100377.31;5104395;28;20214;-83
2022/01/22 03:33:58;;;;;;;2.17;1.90;;;;;;;4.23;100.00;100380.78;5106790;28;20247;-83
2022/01/22 03:36:30;;;;;;;2.10;2.00;;;;;;;4.24;100.00;100392.13;5104083;28;20274;-83
2022/01/22 03:39:00;;;;;;;2.40;2.00;;;;;;;4.23;100.00;100393.00;5112721;28;20203;-83
2022/01/22 03:41:31;;;;;;;2.20;1.80;;;;;;;4.29;100.00;100396.41;5112248;28;20198;-83
2022/01/22 03:43:59;;;;;;;1.93;1.80;;;;;;;4.28;100.00;100391.19;5115522;27;20230;-83
2022/01/22 03:46:32;;;;;;;1.80;1.70;;;;;;;4.23;100.00;100393.88;5168032;27;20272;-83
2022/01/22 03:49:01;;;;;;;1.80;1.70;;;;;;;4.25;100.00;100397.38;5163913;27;20224;-83
2022/01/22 03:51:29;;;;;;;1.90;1.70;;;;;;;4.24;100.00;100392.13;5168016;27;20268;-83
2022/01/22 03:53:59;;;;;;;1.63;1.53;;;;;;;4.26;100.00;100388.59;5166176;27;20201;-83
2022/01/22 03:56:27;;;;;;;1.70;1.60;;;;;;;4.26;100.00;100398.22;5176957;27;20203;-84
2022/01/22 03:58:58;;;;;;;2.00;1.80;;;;;;;4.26;100.00;100398.22;5166646;27;20272;-83
2022/01/22 04:02:03;;;;;;;1.93;1.50;;;;;;;4.21;100.00;100376.44;5171522;27;20189;-83
2022/01/22 04:04:35;;;;;;;2.00;1.80;;;;;;;4.18;100.00;100387.00;5172966;27;20192;-83
2022/01/22 04:09:53;;;;;;;1.97;1.87;;;;;;;4.07;100.00;100371.47;5174215;27;20241;-83
2022/01/22 04:12:30;;;;;;;2.17;1.97;;;;;;;4.10;100.00;100374.03;5169505;27;20253;-84
2022/01/22 04:15:03;;;;;;;1.73;1.63;;;;;;;4.03;100.00;100380.25;5170970;27;20242;-83
2022/01/22 04:26:02;;;;;;;2.17;1.77;;;;;;;4.16;100.00;100380.94;5195937;27;20181;-83
2022/01/22 04:28:34;;;;;;;1.90;1.70;;;;;;;4.15;100.00;100371.31;5192199;27;20212;-83
2022/01/22 04:31:07;;;;;;;1.70;1.60;;;;;;;4.17;100.00;100370.41;5191607;27;20204;-82
2022/01/22 04:33:35;;;;;;;1.77;1.67;;;;;;;4.18;100.00;100373.91;5185538;27;20185;-84
2022/01/22 04:36:04;;;;;;;1.43;1.33;;;;;;;4.18;100.00;100369.50;5175280;27;20189;-82
2022/01/22 04:38:33;;;;;;;2.20;1.80;;;;;;;4.17;100.00;100378.28;5172907;27;20193;-83
2022/01/22 04:41:01;;;;;;;2.27;2.00;;;;;;;4.18;100.00;100381.75;5168068;27;20201;-83
2022/01/22 04:43:34;;;;;;;1.93;1.80;;;;;;;4.24;100.00;100386.88;5168448;27;20213;-84
2022/01/22 04:49:05;;;;;;;2.10;1.77;;;;;;;4.19;100.00;100392.22;5170957;27;20221;-83
2022/01/22 04:57:07;;;;;;;2.03;1.90;;;;;;;4.24;100.00;100405.22;5154728;27;20269;-83
2022/01/22 04:59:36;;;;;;;2.10;2.00;;;;;;;4.27;100.00;100398.19;5162822;27;20223;-83
2022/01/22 05:02:06;;;;;;;2.13;2.00;;;;;;;4.22;100.00;100400.03;5173930;27;20189;-83
2022/01/22 05:04:35;;;;;;;2.53;2.23;;;;;;;4.25;100.00;100399.13;5173989;27;20197;-83
2022/01/22 05:07:05;;;;;;;2.50;2.03;;;;;;;4.22;100.00;100401.78;5174156;27;20636;-83
2022/01/22 05:09:34;;;;;;;2.73;2.03;;;;;;;4.18;100.00;100393.13;5176178;27;20251;-83
2022/01/22 05:12:04;;;;;;;2.40;2.20;;;;;;;4.18;100.00;100398.34;5179571;27;20276;-84
2022/01/22 05:14:32;;;;;;;2.30;2.10;;;;;;;4.23;100.00;100407.00;5090330;28;20191;-84
2022/01/22 05:17:03;;;;;;;2.53;2.10;;;;;;;4.13;100.00;100405.44;5105129;28;20198;-83
2022/01/22 05:19:43;;;;;;;2.27;2.07;;;;;;;4.25;100.00;100413.09;5105686;28;20191;-83
2022/01/22 05:22:20;;;;;;;2.90;1.97;;;;;;;4.19;100.00;100412.34;5110082;28;20645;-84
2022/01/22 05:24:54;;;;;;;2.30;2.10;;;;;;;4.25;100.00;100410.47;5108210;28;20248;-85
2022/01/22 05:30:13;;;;;;;2.20;2.00;;;;;;;4.23;100.00;100417.47;5110374;28;20225;-83
2022/01/22 05:32:58;;;;;;;2.30;2.10;;;;;;;4.25;100.00;100418.34;5140551;27;20636;-84
2022/01/22 05:38:14;;;;;;;2.10;1.90;;;;;;;4.30;100.00;100415.63;5174463;27;20193;-84
2022/01/22 05:40:42;;;;;;;2.40;2.20;;;;;;;4.25;100.00;100428.84;5151589;27;20196;-84
2022/01/22 05:43:11;;;;;;;2.40;2.20;;;;;;;4.29;100.00;100427.88;5168456;27;20209;-83
2022/01/22 05:45:39;;;;;;;2.40;2.20;;;;;;;4.27;100.00;100436.66;5173559;27;20360;-81
2022/01/22 05:48:08;;;;;;;3.47;2.50;;;;;;;4.27;100.00;100428.78;5164354;27;20177;-83
2022/01/22 05:50:48;;;;;;;2.40;2.20;;;;;;;4.28;100.00;100431.38;5153719;27;20214;-81
2022/01/22 05:53:32;;;;;;;2.17;1.97;;;;;;;4.31;100.00;100420.84;5137569;27;20193;-84
2022/01/22 06:01:31;;;;;;;2.30;2.10;;;;;;;4.35;100.00;100434.78;5129386;27;20267;-83
2022/01/22 06:03:59;;;;;;;2.63;2.43;;;;;;;4.38;100.00;100437.34;5128738;27;20214;-83
2022/01/22 06:06:29;;;;;;;3.13;2.50;;;;;;;4.34;100.00;100434.78;5131447;27;20341;-83
2022/01/22 06:09:01;;;;;;;2.93;2.37;;;;;;;4.35;100.00;100436.53;5155945;27;20213;-83
2022/01/22 06:11:36;;;;;;;3.03;2.70;;;;;;;4.42;100.00;100440.75;5167557;27;20207;-83
2022/01/22 06:14:05;;;;;;;2.80;2.50;;;;;;;4.47;100.00;100441.56;5136743;27;20253;-83
2022/01/22 06:16:33;;;;;;;2.97;2.67;;;;;;;4.40;100.00;100447.78;5176654;27;20193;-84
2022/01/22 06:19:01;;;;;;;2.87;2.67;;;;;;;4.44;100.00;100454.69;5168831;27;20251;-84
2022/01/22 06:21:31;;;;;;;3.60;3.30;;;;;;;4.48;100.00;100464.25;5175176;27;20261;-83
2022/01/22 06:23:59;;;;;;;3.30;3.00;;;;;;;4.33;100.00;100452.28;5173314;27;20222;-84
2022/01/22 06:26:28;;;;;;;4.13;3.57;;;;;;;4.41;100.00;100449.53;5170475;27;20193;-83
2022/01/22 06:28:56;;;;;;;3.63;3.03;;;;;;;4.43;100.00;100450.34;5174682;27;20265;-83
2022/01/22 06:31:24;;;;;;;3.90;3.60;;;;;;;4.42;100.00;100452.13;5170765;27;20185;-83
2022/01/22 06:33:53;;;;;;;4.10;3.23;;;;;;;4.38;100.00;100450.44;5174628;27;20193;-83
2022/01/22 06:36:22;;;;;;;3.50;3.20;;;;;;;4.38;100.00;100460.06;5172065;27;20193;-84
2022/01/22 06:38:57;;;;;;;3.70;3.40;;;;;;;4.39;100.00;100473.16;5171628;27;20224;-83
2022/01/22 06:44:12;;;;;;;3.47;3.17;;;;;;;4.39;100.00;100485.41;5177020;27;20189;-83
2022/01/22 06:46:41;;;;;;;3.40;3.10;;;;;;;4.38;100.00;100481.06;5176357;27;20209;-83
2022/01/22 06:49:09;;;;;;;3.83;3.50;;;;;;;4.38;100.00;100481.06;5171642;27;20190;-83
2022/01/22 06:51:38;;;;;;;4.03;3.63;;;;;;;4.34;100.00;100469.75;5176607;27;20197;-83
2022/01/22 06:54:10;;;;;;;3.53;3.23;;;;;;;4.37;100.00;100482.81;5167517;27;20201;-83
2022/01/22 06:56:38;;;;;;;3.87;3.47;;;;;;;4.38;100.00;100491.56;5174567;27;20192;-83
2022/01/22 06:59:08;;;;;;;3.67;3.37;;;;;;;4.39;100.00;100491.53;5174150;27;20196;-83
2022/01/22 07:01:37;;;;;;;3.37;3.07;;;;;;;4.39;100.00;100496.78;5169873;27;20216;-83
2022/01/22 07:04:06;;;;;;;4.10;3.70;;;;;;;4.39;100.00;100501.16;5129083;27;20202;-84
2022/01/22 07:06:34;;;;;;;4.80;4.20;;;;;;;4.41;100.00;100502.84;5126283;27;20202;-82
2022/01/22 07:09:02;;;;;;;3.43;3.13;;;;;;;4.44;100.00;100499.28;5132908;27;20192;-83
2022/01/22 07:11:32;;;;;;;3.30;3.00;;;;;;;4.43;100.00;100494.94;5129920;27;20191;-83
2022/01/22 07:14:00;;;;;;;3.63;3.17;;;;;;;4.40;100.00;100501.13;5128515;27;20182;-83
2022/01/22 07:16:29;;;;;;;3.50;3.20;;;;;;;4.43;100.00;100501.06;5128986;27;20187;-84
2022/01/22 07:19:01;;;;;;;4.00;3.53;;;;;;;4.43;100.00;100501.06;5128780;27;20198;-83
2022/01/22 07:21:31;;;;;;;4.67;3.60;;;;;;;4.45;100.00;100503.69;5136244;27;20192;-83
2022/01/22 07:26:53;;;;;;;4.50;4.10;;;;;;;4.47;100.00;100507.13;5184749;27;20191;-81
2022/01/22 07:29:21;;;;;;;4.00;3.60;;;;;;;4.50;100.00;100509.69;5182157;27;20197;-83
2022/01/22 07:31:52;;;;;;;4.13;3.70;;;;;;;4.54;100.00;100514.88;5089963;28;20639;-83
2022/01/22 07:34:22;;;;;;;4.40;3.47;;;;;;;4.43;100.00;100519.41;5091876;28;20203;-83
2022/01/22 07:36:51;;;;;;;3.87;3.43;;;;;;;4.52;100.00;100518.41;5083750;28;20221;-83
2022/01/22 07:39:19;;;;;;;3.60;3.30;;;;;;;4.56;100.00;100517.47;5091558;28;20650;-84
2022/01/22 07:41:47;;;;;;;3.53;3.23;;;;;;;4.58;100.00;100521.78;5079416;28;20688;-84
2022/01/22 07:44:17;;;;;;;3.47;3.17;;;;;;;4.59;100.00;100525.28;5088610;28;20333;-83
2022/01/22 07:46:46;;;;;;;3.50;3.20;;;;;;;4.51;100.00;100508.78;5085863;28;20184;-83
2022/01/22 07:49:19;;;;;;;3.70;3.10;;;;;;;4.59;100.00;100507.78;5083841;28;20203;-83
2022/01/22 07:51:47;;;;;;;3.17;2.93;;;;;;;4.65;100.00;100516.44;5089010;28;20773;-83
2022/01/22 07:54:16;;;;;;;3.07;2.80;;;;;;;4.68;100.00;100511.13;5083505;28;20214;-83
2022/01/22 07:56:44;;;;;;;3.47;3.17;;;;;;;4.64;100.00;100523.44;5135570;27;20206;-83
2022/01/22 07:59:21;;;;;;;2.90;2.70;;;;;;;4.69;100.00;100521.59;5172575;27;20193;-83
2022/01/22 08:01:52;;;;;;;3.40;2.90;;;;;;;4.74;100.00;100525.00;5173273;27;20263;-82
2022/01/22 08:04:23;;;;;;;3.13;2.83;;;;;;;4.77;100.00;100521.47;5162808;27;20222;-84
2022/01/22 08:06:53;;;;;;;2.90;2.70;;;;;;;4.81;100.00;100517.88;5166249;27;20272;-83
2022/01/22 08:09:24;;;;;;;3.43;3.03;;;;;;;4.85;100.00;100522.19;5172867;27;20219;-83
2022/01/22 08:11:52;;;;;;;3.40;3.10;;;;;;;4.82;100.00;100525.72;5169157;27;20273;-83
2022/01/22 08:14:21;;;;;;;3.70;3.30;;;;;;;4.91;100.00;100523.81;5169703;27;20192;-83
2022/01/22 08:16:51;;;;;;;3.70;3.40;;;;;;;4.85;100.00;100525.69;5170824;27;20201;-83
2022/01/22 08:19:20;;;;;;;4.07;3.40;;;;;;;4.86;100.00;100529.16;5170079;27;20185;-83
2022/01/22 08:21:48;;;;;;;3.77;3.10;;;;;;;4.93;100.00;100527.31;5176367;27;20192;-83
2022/01/22 08:24:19;;;;;;;3.93;3.00;;;;;;;4.92;100.00;100534.28;5032458;28;20239;-83
2022/01/22 08:26:52;;;;;;;2.97;2.67;;;;;;;4.92;100.00;100544.78;5025490;28;20220;-83
2022/01/22 08:29:20;;;;;;;3.30;2.67;;;;;;;4.94;100.00;100545.66;5028014;28;20196;-83
2022/01/22 08:32:02;;;;;;;3.33;3.00;;;;;;;4.96;100.00;100556.13;5023476;28;20298;-83
2022/01/22 08:37:17;;;;;;;4.77;3.00;;;;;;;4.96;100.00;100551.72;5014414;28;20281;-83
2022/01/22 08:39:46;;;;;;;4.03;3.17;;;;;;;5.01;100.00;100554.25;5014101;28;20262;-83
2022/01/22 08:42:14;;;;;;;3.90;3.40;;;;;;;4.95;100.00;100547.38;5026549;28;20271;-83
2022/01/22 08:44:42;;;;;;;4.27;3.67;;;;;;;4.99;100.00;100546.41;5045451;28;20197;-83
2022/01/22 08:47:11;;;;;;;4.00;3.60;;;;;;;4.99;100.00;100546.41;5053091;28;20204;-83
2022/01/22 08:49:41;;;;;;;4.73;4.10;;;;;;;4.99;100.00;100545.53;5115263;27;20186;-83
2022/01/22 08:52:13;;;;;;;4.57;3.50;;;;;;;5.06;100.00;100549.78;5138589;27;20235;-83
2022/01/22 08:54:43;;;;;;;4.23;3.60;;;;;;;5.09;100.00;100545.34;5175823;27;20201;-83
2022/01/22 08:57:12;;;;;;;4.57;3.90;;;;;;;5.10;100.00;100543.56;5168751;27;20193;-83
2022/01/22 08:59:41;;;;;;;4.10;3.70;;;;;;;5.15;100.00;100539.97;5168408;27;20288;-83
2022/01/22 09:02:11;;;;;;;4.33;3.93;;;;;;;5.16;100.00;100548.72;5174317;27;20620;-83
2022/01/22 09:04:41;;;;;;;5.20;4.07;;;;;;;5.18;100.00;100539.91;5158029;27;20257;-83
2022/01/22 09:07:09;;;;;;;4.83;4.20;;;;;;;5.21;100.00;100544.25;5175464;27;20185;-83
2022/01/22 09:09:38;;;;;;;4.33;3.93;;;;;;;5.16;100.00;100551.34;5180109;27;20204;-83
2022/01/22 09:12:09;;;;;;;3.87;3.47;;;;;;;5.22;100.00;100548.63;5173324;27;20289;-82
2022/01/22 09:14:41;;;;;;;4.80;3.97;;;;;;;5.18;100.00;100553.03;5171446;27;20321;-83
2022/01/22 09:17:10;;;;;;;4.43;4.03;;;;;;;5.26;100.00;100566.03;5173042;27;20197;-83
2022/01/22 09:19:46;;;;;;;4.60;4.00;;;;;;;5.34;100.00;100572.00;5174414;27;20278;-83
2022/01/22 09:22:16;;;;;;;4.97;4.17;;;;;;;5.33;100.00;100565.03;5179201;27;20257;-83
2022/01/22 09:24:45;;;;;;;5.07;4.20;;;;;;;5.34;100.00;100569.38;5176424;27;20735;-83
2022/01/22 09:27:15;;;;;;;4.03;3.60;;;;;;;5.37;100.00;100563.19;5173459;27;20193;-83
2022/01/22 09:29:45;;;;;;;4.40;3.63;;;;;;;5.37;100.00;100565.81;5178070;27;20194;-83
2022/01/22 09:32:13;;;;;;;4.07;3.67;;;;;;;5.40;100.00;100565.75;5143398;27;20209;-83
2022/01/22 09:34:44;;;;;;;4.23;3.83;;;;;;;5.32;100.00;100565.91;5169255;27;20201;-83
2022/01/22 09:37:13;;;;;;;4.50;4.03;;;;;;;5.38;100.00;100567.53;5172546;27;20204;-83
2022/01/22 09:39:41;;;;;;;4.60;3.77;;;;;;;5.39;100.00;100567.50;5178244;27;20223;-83
2022/01/22 09:42:13;;;;;;;4.53;4.13;;;;;;;5.40;100.00;100565.75;5175895;27;20253;-83
2022/01/22 09:44:43;;;;;;;5.00;4.47;;;;;;;5.39;100.00;100569.28;5169293;27;20206;-83
2022/01/22 09:47:12;;;;;;;5.40;4.10;;;;;;;5.40;100.00;100566.63;5170138;27;20272;-82
2022/01/22 09:49:44;;;;;;;4.50;3.93;;;;;;;5.40;100.00;100574.53;5135808;27;20264;-84
2022/01/22 09:52:12;;;;;;;4.80;4.30;;;;;;;5.40;100.00;100582.41;5121183;27;20274;-82
2022/01/22 09:54:41;;;;;;;4.33;3.93;;;;;;;5.51;100.00;100576.94;5166608;27;20207;-83
2022/01/22 09:57:14;;;;;;;4.57;3.70;;;;;;;5.49;100.00;100580.47;5175030;27;20245;-82
2022/01/22 09:59:42;;;;;;;4.37;3.97;;;;;;;5.50;100.00;100592.69;5171770;27;20220;-82
2022/01/22 10:02:14;;;;;;;5.63;4.27;;;;;;;5.56;100.00;100589.97;5170906;27;20193;-81
2022/01/22 10:04:48;;;;;;;5.43;4.10;;;;;;;5.51;100.00;100579.56;5169416;27;20189;-82
2022/01/22 10:07:21;;;;;;;4.23;3.70;;;;;;;5.55;100.00;100590.84;5174708;27;20204;-83
2022/01/22 10:09:57;;;;;;;6.03;4.17;;;;;;;5.61;100.00;100590.75;5174715;27;20193;-82
2022/01/22 10:12:27;;;;;;;4.00;3.43;;;;;;;5.61;100.00;100596.88;5172163;27;20212;-82
2022/01/22 10:15:21;;;;;;;4.10;3.70;;;;;;;5.61;100.00;100590.75;5177267;27;20189;-82
2022/01/22 10:17:52;;;;;;;4.13;3.73;;;;;;;5.62;100.00;100598.59;5160749;27;20200;-83
2022/01/22 10:20:33;;;;;;;4.10;3.70;;;;;;;5.62;100.00;100598.59;5153585;27;20193;-82
2022/01/22 10:23:04;;;;;;;4.43;3.60;;;;;;;5.65;100.00;100601.16;5110905;28;20214;-83
2022/01/22 10:25:38;;;;;;;3.50;3.20;;;;;;;5.71;100.00;100601.03;5116988;28;20290;-82
2022/01/22 10:28:10;;;;;;;4.27;3.57;;;;;;;5.75;100.00;100597.44;5112555;28;20198;-82
2022/01/22 10:30:41;;;;;;;3.80;3.40;;;;;;;5.71;100.00;100602.81;5109949;28;20191;-83
2022/01/22 10:33:31;;;;;;;3.70;3.40;;;;;;;5.74;100.00;100600.97;5110893;28;20215;-83
2022/01/22 10:36:14;;;;;;;4.80;3.70;;;;;;;5.76;100.00;100606.19;5068311;28;20200;-82
2022/01/22 10:38:48;;;;;;;3.77;3.47;;;;;;;5.80;100.00;100599.97;5068401;28;20694;-82
2022/01/22 10:41:20;;;;;;;5.83;3.37;;;;;;;5.83;100.00;100609.56;5071065;28;20189;-83
2022/01/22 10:43:54;;;;;;;3.37;3.07;;;;;;;5.82;100.00;100607.81;5064772;28;20224;-84
2022/01/22 10:46:34;;;;;;;4.97;3.30;;;;;;;5.86;100.00;100604.22;5067584;28;20226;-83
2022/01/22 10:49:07;;;;;;;4.30;2.87;;;;;;;5.89;100.00;100599.78;5132215;28;20179;-82
2022/01/22 10:51:51;;;;;;;3.90;3.37;;;;;;;5.91;100.00;100605.91;5082035;28;20226;-81
2022/01/22 10:54:22;;;;;;;4.07;3.20;;;;;;;5.90;100.00;100598.00;5163916;27;20259;-83
2022/01/22 10:56:52;;;;;;;3.23;2.80;;;;;;;5.86;100.00;100596.34;5171728;27;20193;-82
2022/01/22 10:59:22;;;;;;;2.90;2.60;;;;;;;5.88;100.00;100600.66;5133172;27;20193;-83
2022/01/22 11:01:54;;;;;;;3.37;2.90;;;;;;;5.90;100.00;100588.41;5166838;27;20650;-82
2022/01/22 11:04:25;;;;;;;3.13;2.83;;;;;;;5.92;100.00;100591.84;5171030;27;20256;-82
2022/01/22 11:06:57;;;;;;;2.93;2.63;;;;;;;5.90;100.00;100593.66;5166410;27;20193;-81
2022/01/22 11:09:46;;;;;;;2.83;2.60;;;;;;;5.94;100.00;100603.19;5177268;27;20197;-81
2022/01/22 11:12:16;;;;;;;2.63;2.30;;;;;;;5.91;100.00;100595.38;5177277;27;20216;-81
2022/01/22 11:14:45;;;;;;;2.77;2.50;;;;;;;5.97;100.00;100604.88;5166734;27;20216;-80
2022/01/22 11:17:14;;;;;;;2.83;2.43;;;;;;;5.97;100.00;100600.47;5171062;27;20200;-81
2022/01/22 11:19:47;;;;;;;3.10;2.40;;;;;;;6.05;100.00;100604.72;5178275;27;20224;-80
2022/01/22 11:22:20;;;;;;;2.57;2.30;;;;;;;6.03;100.00;100605.63;5173129;27;20200;-81
2022/01/22 11:24:53;;;;;;;2.70;2.43;;;;;;;6.03;100.00;100612.66;5170622;27;20200;-80
2022/01/22 11:27:23;;;;;;;3.50;2.83;;;;;;;6.03;100.00;100599.50;5177212;27;20272;-83
2022/01/22 11:29:55;;;;;;;2.53;2.33;;;;;;;6.02;100.00;100592.50;5169624;27;20205;-83
2022/01/22 11:32:29;;;;;;;3.30;2.60;;;;;;;6.04;100.00;100606.50;5086563;28;20215;-84
2022/01/22 11:35:01;;;;;;;3.63;2.97;;;;;;;6.09;100.00;100598.50;5084337;28;20812;-80
2022/01/22 11:37:43;;;;;;;3.67;2.90;;;;;;;6.09;100.00;100593.25;5082881;28;20203;-80
2022/01/22 11:40:15;;;;;;;2.87;2.43;;;;;;;6.05;100.00;100595.06;5080705;28;20230;-80
2022/01/22 11:42:57;;;;;;;3.30;2.50;;;;;;;6.09;100.00;100595.88;5084608;28;20227;-81
2022/01/22 11:45:30;;;;;;;2.90;2.60;;;;;;;6.11;100.00;100601.97;5087880;28;20188;-80
2022/01/22 11:48:12;;;;;;;2.77;2.50;;;;;;;6.13;100.00;100600.16;5088267;28;20192;-81
2022/01/22 11:50:42;;;;;;;3.73;2.60;;;;;;;6.13;100.00;100605.41;5080582;28;20196;-81
2022/01/22 11:53:54;;;;;;;3.70;2.87;;;;;;;6.12;100.00;100601.06;5087629;28;20222;-81
2022/01/22 11:56:29;;;;;;;3.20;2.90;;;;;;;6.17;100.00;100605.28;5112924;27;20200;-82
2022/01/22 11:59:23;;;;;;;3.33;2.70;;;;;;;6.21;100.00;100601.72;5171740;27;20203;-82
2022/01/22 12:01:59;;;;;;;2.50;2.30;;;;;;;6.19;100.00;100613.19;5170642;27;20204;-83
2022/01/22 12:04:29;;;;;;;2.93;2.50;;;;;;;6.23;100.00;100597.28;5172534;27;20195;-83
2022/01/22 12:07:15;;;;;;;3.23;2.60;;;;;;;6.19;100.00;100597.41;5172049;27;20677;-82
2022/01/22 12:09:54;;;;;;;3.80;2.23;;;;;;;6.18;100.00;100599.16;5164321;27;20221;-82
2022/01/22 12:15:15;;;;;;;4.47;2.50;;;;;;;6.15;100.00;100593.94;5110695;28;20191;-82
2022/01/22 12:18:16;;;;;;;2.63;2.23;;;;;;;6.23;100.00;100594.66;5110883;28;20186;-83
2022/01/22 12:23:51;;;;;;;2.60;2.40;;;;;;;6.17;100.00;100597.41;5107433;28;20198;-81
2022/01/22 12:27:00;;;;;;;3.40;2.93;;;;;;;6.24;100.00;100599.00;5116161;28;20222;-81
2022/01/22 12:29:41;;;;;;;4.47;3.13;;;;;;;6.29;100.00;100599.78;5109010;28;20194;-80
2022/01/22 12:32:33;;;;;;;3.27;2.80;;;;;;;6.26;100.00;100602.47;5115881;27;20550;-81
2022/01/22 12:35:16;;;;;;;3.33;2.97;;;;;;;6.17;100.00;100600.03;5170412;27;20197;-81
2022/01/22 12:38:03;;;;;;;3.47;3.00;;;;;;;6.20;100.00;100605.25;5166759;27;20208;-82
2022/01/22 12:40:35;;;;;;;4.20;2.97;;;;;;;6.15;100.00;100614.13;5175139;27;20253;-82
2022/01/22 12:43:18;;;;;;;3.87;3.27;;;;;;;6.15;100.00;100600.97;5170686;27;20713;-84
2022/01/22 12:45:55;;;;;;;3.40;3.10;;;;;;;6.11;100.00;100600.19;5131422;28;20190;-82
2022/01/22 12:48:38;;;;;;;3.93;3.20;;;;;;;6.09;100.00;100602.00;5125564;28;20208;-82
2022/01/22 12:51:08;;;;;;;4.50;3.70;;;;;;;6.06;100.00;100598.56;5126048;28;20198;-82
2022/01/22 12:53:41;;;;;;;3.90;3.40;;;;;;;6.12;100.00;100601.94;5129509;28;20297;-82
2022/01/22 12:59:17;;;;;;;4.73;3.80;;;;;;;6.13;100.00;100593.13;5125210;28;20239;-81
2022/01/22 13:01:51;;;;;;;5.20;3.83;;;;;;;6.18;100.00;100595.66;5131288;28;20186;-82
2022/01/22 13:04:23;;;;;;;5.53;3.97;;;;;;;6.16;100.00;100594.81;5154664;27;20200;-82
2022/01/22 13:06:54;;;;;;;5.40;4.37;;;;;;;6.15;100.00;100598.34;5170319;27;20204;-82
2022/01/22 13:09:22;;;;;;;5.83;4.70;;;;;;;6.15;100.00;100604.47;5169631;27;20201;-81
2022/01/22 13:11:57;;;;;;;5.60;4.40;;;;;;;6.17;100.00;100607.94;5171203;27;20252;-82